Time;durP1;ratioP1;P1;durP2;ratioP2;P2;SDS_P1;SDS_P2;PMS_P1;PMS_P2;Temp;Humidity;BMP_temperature;BMP_pressure;BME280_temperature;BME280_humidity;BME280_pressure;Samples;Min_cycle;Max_cycle;Signal;HPM_P1;HPM_P2
2021/05/09 00:00:38;;;;;;;5.13;3.42;;;6.30;87.10;;;;;;5053176;28;20083;-82
2021/05/09 00:03:05;;;;;;;7.40;4.20;;;6.30;87.20;;;;;;5053718;28;20083;-82
2021/05/09 00:05:31;;;;;;;7.07;4.10;;;6.30;87.30;;;;;;5053590;28;20082;-81
2021/05/09 00:07:57;;;;;;;5.75;3.97;;;6.30;87.40;;;;;;5054607;28;20048;-81
2021/05/09 00:10:23;;;;;;;7.18;4.10;;;6.30;87.60;;;;;;5054909;28;20025;-81
2021/05/09 00:12:48;;;;;;;6.40;4.00;;;6.20;87.80;;;;;;5065845;28;20033;-81
2021/05/09 00:15:23;;;;;;;8.77;4.47;;;6.20;87.90;;;;;;5068767;28;20105;-81
2021/05/09 00:17:49;;;;;;;6.35;3.90;;;6.20;88.10;;;;;;5062916;28;20056;-82
2021/05/09 00:20:15;;;;;;;8.00;4.35;;;6.20;88.20;;;;;;5064355;28;20025;-81
2021/05/09 00:22:41;;;;;;;8.30;4.38;;;6.20;88.30;;;;;;5056064;28;20078;-82
2021/05/09 00:25:07;;;;;;;8.23;3.92;;;6.20;88.40;;;;;;5054676;28;20104;-81
2021/05/09 00:27:33;;;;;;;5.45;3.72;;;6.20;88.60;;;;;;5054127;28;20183;-81
2021/05/09 00:29:59;;;;;;;7.32;4.32;;;6.10;88.60;;;;;;5054116;28;20104;-81
2021/05/09 00:32:24;;;;;;;5.90;4.03;;;6.10;88.60;;;;;;5053833;28;20029;-83
2021/05/09 00:34:50;;;;;;;7.88;4.30;;;6.10;88.70;;;;;;5053012;28;20037;-81
2021/05/09 00:37:16;;;;;;;6.43;4.00;;;6.10;88.80;;;;;;5053794;28;20525;-81
2021/05/09 00:39:44;;;;;;;7.03;4.07;;;6.00;88.90;;;;;;5054054;28;20025;-81
2021/05/09 00:42:09;;;;;;;7.13;4.30;;;6.00;89.20;;;;;;5053739;28;20056;-82
2021/05/09 00:44:35;;;;;;;6.68;4.25;;;6.00;89.30;;;;;;5052265;28;20443;-81
2021/05/09 00:47:09;;;;;;;6.22;4.10;;;6.00;89.30;;;;;;5053866;28;20060;-82
2021/05/09 00:49:36;;;;;;;7.75;4.70;;;6.00;89.50;;;;;;5053280;28;20446;-81
2021/05/09 00:52:02;;;;;;;7.68;4.15;;;6.00;90.00;;;;;;5052602;28;20033;-82
2021/05/09 00:54:28;;;;;;;6.43;4.65;;;6.00;89.70;;;;;;5053507;28;20032;-81
2021/05/09 00:56:56;;;;;;;7.32;4.35;;;6.00;89.60;;;;;;5053648;28;20075;-81
2021/05/09 00:59:24;;;;;;;7.53;4.55;;;5.90;89.60;;;;;;5052189;28;20103;-81
2021/05/09 01:01:51;;;;;;;8.00;4.57;;;5.90;89.80;;;;;;5052569;28;20468;-81
2021/05/09 01:04:17;;;;;;;8.02;4.57;;;5.90;89.80;;;;;;5051916;28;20032;-81
2021/05/09 01:06:44;;;;;;;6.55;4.38;;;5.90;89.80;;;;;;5051717;28;20098;-81
2021/05/09 01:09:11;;;;;;;5.82;4.35;;;5.80;89.90;;;;;;5053368;28;20130;-81
2021/05/09 01:11:37;;;;;;;8.55;4.63;;;5.80;90.00;;;;;;5051881;28;20045;-82
2021/05/09 01:14:04;;;;;;;7.32;4.50;;;5.80;90.00;;;;;;5052258;28;20025;-81
2021/05/09 01:16:29;;;;;;;8.98;4.28;;;5.70;90.10;;;;;;5053118;28;20368;-81
2021/05/09 01:18:55;;;;;;;6.50;4.55;;;5.70;90.20;;;;;;5052288;28;20135;-82
2021/05/09 01:21:21;;;;;;;10.73;4.40;;;5.70;90.20;;;;;;5051663;28;20029;-82
2021/05/09 01:23:47;;;;;;;8.85;4.50;;;5.70;90.30;;;;;;5051824;28;20494;-81
2021/05/09 01:26:13;;;;;;;6.75;4.18;;;5.70;90.40;;;;;;5053067;28;20029;-81
2021/05/09 01:28:39;;;;;;;5.65;4.13;;;5.70;90.40;;;;;;5051111;28;20033;-80
2021/05/09 01:31:04;;;;;;;7.63;4.50;;;5.70;90.40;;;;;;5053196;28;20033;-81
2021/05/09 01:33:30;;;;;;;6.10;4.32;;;5.60;90.40;;;;;;5052032;28;20025;-81
2021/05/09 01:35:57;;;;;;;7.25;3.78;;;5.70;90.50;;;;;;5053209;28;20465;-81
2021/05/09 01:38:23;;;;;;;6.75;4.22;;;5.70;90.50;;;;;;5051752;28;20489;-82
2021/05/09 01:40:49;;;;;;;5.75;4.20;;;5.70;90.50;;;;;;5052757;28;20017;-82
2021/05/09 01:43:15;;;;;;;7.95;4.50;;;5.70;90.50;;;;;;5052935;28;20480;-81
2021/05/09 01:45:41;;;;;;;7.97;4.63;;;5.70;90.60;;;;;;5051772;28;20524;-82
2021/05/09 01:48:07;;;;;;;6.65;4.20;;;5.60;90.50;;;;;;5051888;28;20028;-81
2021/05/09 01:50:33;;;;;;;7.10;4.80;;;5.60;90.50;;;;;;5052795;28;20025;-81
2021/05/09 01:53:02;;;;;;;8.02;4.50;;;5.60;90.60;;;;;;5051814;28;20107;-81
2021/05/09 01:55:29;;;;;;;9.52;4.93;;;5.60;90.70;;;;;;5052880;28;20057;-81
2021/05/09 01:57:54;;;;;;;7.03;4.28;;;5.60;90.80;;;;;;5053275;28;20029;-80
2021/05/09 02:00:21;;;;;;;7.18;4.55;;;5.50;90.70;;;;;;5051765;28;20146;-80
2021/05/09 02:02:47;;;;;;;6.72;4.75;;;5.50;90.80;;;;;;5051810;28;20024;-81
2021/05/09 02:05:14;;;;;;;7.28;4.20;;;5.50;90.90;;;;;;5053403;28;20378;-81
2021/05/09 02:07:39;;;;;;;8.43;4.63;;;5.50;90.90;;;;;;5051663;28;20048;-81
2021/05/09 02:10:07;;;;;;;7.65;4.38;;;5.50;90.90;;;;;;5052784;28;20025;-81
2021/05/09 02:12:33;;;;;;;7.50;4.57;;;5.40;90.90;;;;;;5052692;28;20037;-82
2021/05/09 02:14:58;;;;;;;8.05;4.45;;;5.40;91.10;;;;;;5056988;28;20021;-81
2021/05/09 02:17:24;;;;;;;7.43;4.20;;;5.50;91.10;;;;;;5055524;28;20055;-81
2021/05/09 02:19:50;;;;;;;6.97;4.47;;;5.50;91.20;;;;;;5055916;28;20029;-81
2021/05/09 02:22:16;;;;;;;8.35;4.93;;;5.40;91.20;;;;;;5055869;28;20056;-81
2021/05/09 02:24:45;;;;;;;11.05;4.20;;;5.40;91.30;;;;;;5052352;28;20035;-81
2021/05/09 02:27:11;;;;;;;10.88;5.10;;;5.40;91.40;;;;;;5053185;28;20096;-81
2021/05/09 02:29:37;;;;;;;7.10;4.95;;;5.50;91.40;;;;;;5053198;28;20132;-81
2021/05/09 02:32:04;;;;;;;8.98;4.97;;;5.50;91.50;;;;;;5060169;28;20048;-81
2021/05/09 02:34:33;;;;;;;8.07;4.88;;;5.50;91.60;;;;;;5054119;28;20029;-81
2021/05/09 02:36:59;;;;;;;9.90;4.93;;;5.60;91.90;;;;;;5052318;28;20032;-81
2021/05/09 02:39:24;;;;;;;9.07;5.10;;;5.60;91.90;;;;;;5054965;28;20032;-81
2021/05/09 02:41:50;;;;;;;7.40;4.85;;;5.70;91.70;;;;;;5054938;28;20017;-81
2021/05/09 02:44:16;;;;;;;7.03;4.40;;;5.80;91.70;;;;;;5055190;28;20025;-81
2021/05/09 02:46:42;;;;;;;6.32;4.90;;;5.80;91.60;;;;;;5055880;28;20411;-81
2021/05/09 02:49:07;;;;;;;7.50;4.80;;;5.90;91.70;;;;;;5054874;28;20029;-82
2021/05/09 02:51:33;;;;;;;8.85;4.00;;;6.00;92.50;;;;;;5054650;28;20463;-82
2021/05/09 02:53:59;;;;;;;5.53;3.63;;;6.30;93.10;;;;;;5056014;28;20036;-82
2021/05/09 02:56:25;;;;;;;7.25;3.90;;;6.70;93.30;;;;;;5054765;28;20514;-83
2021/05/09 02:58:51;;;;;;;6.28;4.10;;;7.00;93.20;;;;;;5054703;28;20028;-82
2021/05/09 03:01:16;;;;;;;6.05;3.92;;;7.40;93.00;;;;;;5054838;28;20037;-82
2021/05/09 03:03:42;;;;;;;5.15;3.60;;;7.70;92.50;;;;;;5054624;28;20502;-82
2021/05/09 03:06:08;;;;;;;8.98;4.10;;;8.00;92.10;;;;;;5054326;28;20044;-83
2021/05/09 03:08:34;;;;;;;7.93;4.07;;;8.30;91.70;;;;;;5054037;28;20057;-82
2021/05/09 03:11:00;;;;;;;6.05;3.85;;;8.60;91.30;;;;;;5055934;28;20024;-82
2021/05/09 03:13:27;;;;;;;6.53;3.70;;;8.90;90.80;;;;;;5055874;28;20054;-82
2021/05/09 03:15:52;;;;;;;7.03;4.70;;;9.10;90.40;;;;;;5088566;28;20485;-82
2021/05/09 03:18:18;;;;;;;6.47;3.85;;;9.40;90.00;;;;;;5054858;28;20124;-83
2021/05/09 03:20:44;;;;;;;7.22;3.92;;;9.60;89.00;;;;;;5055397;28;20110;-84
2021/05/09 03:23:10;;;;;;;5.72;3.80;;;10.00;87.70;;;;;;5056445;28;20029;-84
2021/05/09 03:25:36;;;;;;;5.85;3.88;;;10.30;86.30;;;;;;5056473;28;20025;-83
2021/05/09 03:28:02;;;;;;;6.10;4.10;;;10.60;84.30;;;;;;5054846;28;20135;-83
2021/05/09 03:30:27;;;;;;;6.25;3.85;;;11.00;83.10;;;;;;5055873;28;20029;-83
2021/05/09 03:32:56;;;;;;;6.10;4.18;;;11.20;81.30;;;;;;5055895;28;20032;-83
2021/05/09 03:35:22;;;;;;;6.70;4.60;;;11.50;80.20;;;;;;5054815;28;20079;-83
2021/05/09 03:37:48;;;;;;;8.35;4.10;;;11.70;79.00;;;;;;5054780;28;20025;-83
2021/05/09 03:40:14;;;;;;;6.20;3.95;;;12.00;77.80;;;;;;5054195;28;20051;-83
2021/05/09 03:42:40;;;;;;;10.48;4.30;;;12.40;76.50;;;;;;5055685;28;20035;-82
2021/05/09 03:45:06;;;;;;;6.32;3.88;;;12.80;75.10;;;;;;5055525;28;20531;-84
2021/05/09 03:47:32;;;;;;;5.40;3.50;;;13.00;73.30;;;;;;5055848;28;20086;-83
2021/05/09 03:49:58;;;;;;;5.15;3.35;;;13.20;72.30;;;;;;5053239;28;20364;-83
2021/05/09 03:52:25;;;;;;;6.28;3.35;;;13.40;71.70;;;;;;5054643;28;20033;-87
2021/05/09 03:54:51;;;;;;;7.82;3.53;;;13.60;70.50;;;;;;5055766;28;20029;-82
2021/05/09 03:57:16;;;;;;;6.47;3.40;;;13.90;69.60;;;;;;5055633;28;20040;-83
2021/05/09 03:59:42;;;;;;;6.15;3.40;;;14.10;68.90;;;;;;5054304;28;20043;-82
2021/05/09 04:02:08;;;;;;;4.63;3.08;;;14.40;67.70;;;;;;5055526;28;20048;-82
2021/05/09 04:04:34;;;;;;;4.95;2.83;;;14.70;66.60;;;;;;5053715;28;20025;-84
2021/05/09 04:07:00;;;;;;;3.92;2.90;;;15.00;65.30;;;;;;5054058;28;20049;-84
2021/05/09 04:09:25;;;;;;;4.60;2.72;;;15.20;64.20;;;;;;5055546;28;20037;-83
2021/05/09 04:11:51;;;;;;;5.40;2.88;;;15.40;63.40;;;;;;5054537;28;20126;-83
2021/05/09 04:14:17;;;;;;;3.83;2.63;;;15.50;62.30;;;;;;5058594;28;20033;-85
2021/05/09 04:16:43;;;;;;;4.45;2.75;;;15.60;61.60;;;;;;5065207;28;20029;-84
2021/05/09 04:19:09;;;;;;;4.55;2.78;;;15.70;61.00;;;;;;5056489;28;20529;-84
2021/05/09 04:21:35;;;;;;;4.45;2.63;;;15.90;60.30;;;;;;5055499;28;20025;-84
2021/05/09 04:24:01;;;;;;;8.15;3.03;;;16.10;59.70;;;;;;5056311;28;20025;-85
2021/05/09 04:26:26;;;;;;;3.53;2.30;;;16.30;58.30;;;;;;5069501;28;20024;-87
2021/05/09 04:28:52;;;;;;;4.97;2.42;;;16.50;58.00;;;;;;5078261;28;20024;-85
2021/05/09 04:31:18;;;;;;;4.68;2.55;;;16.90;57.10;;;;;;5065005;28;20040;-85
2021/05/09 04:33:43;;;;;;;3.60;2.50;;;17.10;56.40;;;;;;5054375;28;20021;-85
2021/05/09 04:36:09;;;;;;;5.18;2.50;;;17.00;55.50;;;;;;5056716;28;20033;-85
2021/05/09 04:38:35;;;;;;;4.28;2.40;;;17.20;55.50;;;;;;5057832;28;20410;-85
2021/05/09 04:41:01;;;;;;;6.30;2.30;;;17.60;54.30;;;;;;5062465;28;20063;-85
2021/05/09 04:43:27;;;;;;;5.20;2.53;;;17.80;53.70;;;;;;5052936;28;20472;-84
2021/05/09 04:45:55;;;;;;;6.05;2.28;;;17.80;52.80;;;;;;5052800;28;20021;-84
2021/05/09 04:48:22;;;;;;;3.33;2.28;;;18.00;52.50;;;;;;5052363;28;20029;-85
2021/05/09 04:50:48;;;;;;;4.28;2.35;;;18.10;51.50;;;;;;5052495;28;20078;-85
2021/05/09 04:53:28;;;;;;;3.50;2.38;;;18.20;51.60;;;;;;5053256;28;20028;-85
2021/05/09 04:55:55;;;;;;;4.25;2.20;;;18.40;50.80;;;;;;5052679;28;20108;-86
2021/05/09 04:58:21;;;;;;;3.63;2.60;;;18.60;51.00;;;;;;5052519;28;20484;-85
2021/05/09 05:00:54;;;;;;;4.65;2.30;;;18.80;49.90;;;;;;5052019;28;20035;-85
2021/05/09 05:03:20;;;;;;;4.68;2.50;;;19.00;49.50;;;;;;5053181;28;20413;-85
2021/05/09 05:05:46;;;;;;;4.93;2.47;;;19.20;49.20;;;;;;5052342;28;20513;-85
2021/05/09 05:08:12;;;;;;;4.28;2.30;;;19.40;48.20;;;;;;5052602;28;20064;-86
2021/05/09 05:10:37;;;;;;;4.32;2.22;;;19.40;47.70;;;;;;5052258;28;20395;-86
2021/05/09 05:13:03;;;;;;;5.55;2.50;;;19.50;47.20;;;;;;5052151;28;20114;-86
2021/05/09 05:15:29;;;;;;;3.65;1.90;;;19.60;47.00;;;;;;5051910;28;20111;-85
2021/05/09 05:17:54;;;;;;;3.47;2.20;;;19.80;46.40;;;;;;5052169;28;20030;-84
2021/05/09 05:20:20;;;;;;;2.97;2.10;;;19.70;46.00;;;;;;5052226;28;20345;-84
2021/05/09 05:22:46;;;;;;;3.53;1.90;;;19.70;45.40;;;;;;5052780;28;20452;-84
2021/05/09 05:25:12;;;;;;;3.58;2.15;;;19.80;45.50;;;;;;5052121;28;20375;-84
2021/05/09 05:27:38;;;;;;;4.72;2.30;;;20.00;45.20;;;;;;5052061;28;20021;-84
2021/05/09 05:30:04;;;;;;;2.90;1.90;;;20.10;44.50;;;;;;5051666;28;20386;-85
2021/05/09 05:32:30;;;;;;;5.93;2.10;;;20.30;44.10;;;;;;5051951;28;20043;-85
2021/05/09 05:34:56;;;;;;;3.75;1.88;;;20.50;44.40;;;;;;5051829;28;20033;-84
2021/05/09 05:37:22;;;;;;;2.83;1.83;;;20.80;44.10;;;;;;5052376;28;20025;-85
2021/05/09 05:39:47;;;;;;;4.47;2.40;;;20.90;43.30;;;;;;5051850;28;20546;-84
2021/05/09 05:42:13;;;;;;;3.08;1.90;;;20.80;42.90;;;;;;5051919;28;20021;-84
2021/05/09 05:44:38;;;;;;;2.80;1.95;;;20.90;42.90;;;;;;5051625;28;20021;-84
2021/05/09 05:47:04;;;;;;;7.20;2.00;;;21.00;42.40;;;;;;5051966;28;20030;-85
2021/05/09 05:49:30;;;;;;;7.50;2.28;;;21.10;42.50;;;;;;5051999;28;20029;-85
2021/05/09 05:51:56;;;;;;;2.58;1.95;;;21.10;42.20;;;;;;5052364;28;20025;-87
2021/05/09 05:54:21;;;;;;;3.33;2.10;;;21.20;42.50;;;;;;5051848;28;20024;-86
2021/05/09 05:56:47;;;;;;;3.22;2.10;;;21.50;42.10;;;;;;5051554;28;20040;-86
2021/05/09 05:59:12;;;;;;;3.13;2.03;;;21.50;42.00;;;;;;5051495;28;20463;-87
2021/05/09 06:01:38;;;;;;;4.03;1.90;;;21.50;41.50;;;;;;5052066;28;20033;-86
2021/05/09 06:04:04;;;;;;;4.93;2.30;;;21.40;41.00;;;;;;5051647;28;20060;-85
2021/05/09 06:06:30;;;;;;;3.90;2.10;;;21.40;41.00;;;;;;5051595;28;20052;-86
2021/05/09 06:08:56;;;;;;;3.90;2.20;;;21.30;40.70;;;;;;5051901;28;20029;-86
2021/05/09 06:11:22;;;;;;;5.32;1.98;;;21.30;40.60;;;;;;5053305;28;20041;-86
2021/05/09 06:13:48;;;;;;;4.30;2.20;;;21.40;41.20;;;;;;5054069;28;20513;-86
2021/05/09 06:16:13;;;;;;;3.58;1.80;;;21.60;41.00;;;;;;5057252;28;20032;-86
2021/05/09 06:18:39;;;;;;;3.08;1.88;;;22.00;40.40;;;;;;5063040;28;20055;-85
2021/05/09 06:21:05;;;;;;;2.78;1.88;;;22.30;40.40;;;;;;5066729;28;20498;-85
2021/05/09 06:23:31;;;;;;;3.42;1.75;;;22.70;39.50;;;;;;5061994;28;20386;-85
2021/05/09 06:25:57;;;;;;;5.75;2.70;;;22.90;39.30;;;;;;5072512;28;20033;-85
2021/05/09 06:28:23;;;;;;;3.40;1.88;;;23.00;39.20;;;;;;5068554;28;20029;-86
2021/05/09 06:30:49;;;;;;;5.57;1.80;;;23.20;38.60;;;;;;5060286;28;20029;-86
2021/05/09 06:33:15;;;;;;;5.03;2.00;;;23.00;37.50;;;;;;5060764;28;20078;-86
2021/05/09 06:35:42;;;;;;;3.45;1.70;;;22.60;37.30;;;;;;5062685;28;20075;-85
2021/05/09 06:38:08;;;;;;;3.80;1.98;;;22.40;37.20;;;;;;5061718;28;20027;-86
2021/05/09 06:40:35;;;;;;;4.07;1.80;;;22.30;37.50;;;;;;5060812;28;20109;-86
2021/05/09 06:43:02;;;;;;;2.05;1.50;;;22.60;38.20;;;;;;5055378;28;20053;-87
2021/05/09 06:45:30;;;;;;;3.55;1.83;;;22.90;37.80;;;;;;5055123;28;20478;-87
2021/05/09 06:47:57;;;;;;;2.55;1.73;;;23.00;37.20;;;;;;5055201;28;20025;-87
2021/05/09 06:50:23;;;;;;;3.58;1.90;;;22.90;37.20;;;;;;5055421;28;20086;-87
2021/05/09 06:52:49;;;;;;;3.67;2.60;;;23.10;37.10;;;;;;5058423;28;20518;-87
2021/05/09 06:55:15;;;;;;;4.75;2.30;;;23.30;37.10;;;;;;5058518;28;20033;-87
2021/05/09 06:57:41;;;;;;;3.83;2.05;;;23.30;36.90;;;;;;5058411;28;20108;-87
2021/05/09 07:00:09;;;;;;;2.80;1.90;;;23.40;36.30;;;;;;5055394;28;20483;-87
2021/05/09 07:02:35;;;;;;;3.65;1.60;;;23.80;36.30;;;;;;5041027;28;20464;-87
2021/05/09 07:05:01;;;;;;;2.65;1.52;;;23.70;35.50;;;;;;5055009;28;20033;-86
2021/05/09 07:07:27;;;;;;;3.35;1.95;;;23.30;35.60;;;;;;5054545;28;20053;-86
2021/05/09 07:09:53;;;;;;;2.75;1.55;;;23.10;35.90;;;;;;5055932;28;20036;-85
2021/05/09 07:12:19;;;;;;;2.28;1.67;;;23.00;36.50;;;;;;5054555;28;20071;-85
2021/05/09 07:14:44;;;;;;;4.00;1.67;;;23.00;36.00;;;;;;5055783;28;20029;-83
2021/05/09 07:17:11;;;;;;;1.73;1.45;;;22.80;35.60;;;;;;5054317;28;20032;-83
2021/05/09 07:19:37;;;;;;;4.47;1.80;;;22.40;35.60;;;;;;5055535;28;20035;-84
2021/05/09 07:22:07;;;;;;;4.53;1.60;;;22.30;36.20;;;;;;5054324;28;20382;-82
2021/05/09 07:24:33;;;;;;;2.63;1.40;;;22.30;36.30;;;;;;5054929;28;20116;-84
2021/05/09 07:26:59;;;;;;;2.35;1.73;;;22.60;36.30;;;;;;5055633;28;20052;-78
2021/05/09 07:29:24;;;;;;;2.65;1.60;;;22.60;35.90;;;;;;5053814;28;20487;-77
2021/05/09 07:31:50;;;;;;;2.97;1.75;;;22.40;35.50;;;;;;5054073;28;20024;-85
2021/05/09 07:34:16;;;;;;;2.92;1.67;;;22.30;36.20;;;;;;5055426;28;20025;-86
2021/05/09 07:36:41;;;;;;;2.50;1.42;;;22.50;36.80;;;;;;5055364;28;20482;-85
2021/05/09 07:39:07;;;;;;;2.22;1.33;;;22.40;35.50;;;;;;5055228;28;20056;-85
2021/05/09 07:41:33;;;;;;;4.30;1.80;;;21.80;35.30;;;;;;5054074;28;20448;-85
2021/05/09 07:44:00;;;;;;;5.55;1.77;;;21.40;35.60;;;;;;5053931;28;20467;-85
2021/05/09 07:46:25;;;;;;;4.07;1.80;;;21.10;36.20;;;;;;5055100;28;20060;-85
2021/05/09 07:48:51;;;;;;;2.63;1.50;;;21.50;37.30;;;;;;5053451;28;20075;-83
2021/05/09 07:51:17;;;;;;;2.40;1.80;;;21.80;36.40;;;;;;5053787;28;20043;-83
2021/05/09 07:53:43;;;;;;;4.38;1.67;;;21.70;35.60;;;;;;5053672;28;20021;-83
2021/05/09 07:56:09;;;;;;;2.40;1.77;;;21.50;35.30;;;;;;5053702;28;20029;-83
2021/05/09 07:58:34;;;;;;;2.20;1.50;;;21.50;35.70;;;;;;5053447;28;20035;-83
2021/05/09 08:01:02;;;;;;;2.78;1.60;;;21.90;35.50;;;;;;5054029;28;20032;-83
2021/05/09 08:03:28;;;;;;;3.22;1.55;;;21.90;35.00;;;;;;5054917;28;20021;-84
2021/05/09 08:05:54;;;;;;;2.22;1.30;;;22.00;34.60;;;;;;5054562;28;20048;-84
2021/05/09 08:08:25;;;;;;;3.00;1.33;;;21.70;34.30;;;;;;5054647;28;20071;-84
2021/05/09 08:10:51;;;;;;;2.90;1.60;;;21.60;34.70;;;;;;5053467;28;20487;-84
2021/05/09 08:13:16;;;;;;;1.58;1.40;;;21.20;34.80;;;;;;5054120;28;20120;-83
2021/05/09 08:15:42;;;;;;;3.85;1.55;;;20.70;35.20;;;;;;5055516;28;20025;-84
2021/05/09 08:18:08;;;;;;;3.50;1.50;;;20.40;35.60;;;;;;5055561;28;20025;-83
2021/05/09 08:20:34;;;;;;;3.72;1.50;;;20.00;35.00;;;;;;5055838;28;20439;-83
2021/05/09 08:23:00;;;;;;;1.80;1.40;;;19.40;35.60;;;;;;5072968;28;20025;-83
2021/05/09 08:25:26;;;;;;;3.45;1.75;;;19.00;36.70;;;;;;5072573;28;20011;-83
2021/05/09 08:27:52;;;;;;;1.92;1.60;;;19.30;37.90;;;;;;5072684;28;20048;-83
2021/05/09 08:30:21;;;;;;;3.40;1.83;;;19.60;37.30;;;;;;5071893;28;20064;-82
2021/05/09 08:32:47;;;;;;;2.47;1.75;;;20.00;37.30;;;;;;5066892;28;20048;-82
2021/05/09 08:35:13;;;;;;;1.95;1.50;;;20.40;36.50;;;;;;5060941;28;20028;-82
2021/05/09 08:37:40;;;;;;;2.78;1.80;;;20.70;36.20;;;;;;5064121;28;20033;-82
2021/05/09 08:40:08;;;;;;;3.42;1.70;;;20.50;35.70;;;;;;5061259;28;20033;-82
2021/05/09 08:42:34;;;;;;;4.32;2.38;;;20.60;36.00;;;;;;5059845;28;20025;-82
2021/05/09 08:44:59;;;;;;;2.45;1.90;;;20.30;35.50;;;;;;5054243;28;20365;-83
2021/05/09 08:47:36;;;;;;;3.40;1.70;;;20.20;36.40;;;;;;5052422;28;20116;-83
2021/05/09 08:50:03;;;;;;;2.03;1.60;;;20.20;35.90;;;;;;5052214;28;20036;-83
2021/05/09 08:52:30;;;;;;;3.90;1.80;;;19.80;35.50;;;;;;5053917;28;20067;-82
2021/05/09 08:54:55;;;;;;;2.25;1.70;;;19.40;35.70;;;;;;5052767;28;20056;-82
2021/05/09 08:57:21;;;;;;;2.65;1.63;;;18.80;36.20;;;;;;5052515;28;20435;-81
2021/05/09 08:59:47;;;;;;;5.18;2.15;;;18.50;37.20;;;;;;5052679;28;20076;-81
2021/05/09 09:02:14;;;;;;;5.57;1.60;;;18.40;37.90;;;;;;5052361;28;20395;-82
2021/05/09 09:04:45;;;;;;;3.90;1.83;;;18.80;38.40;;;;;;5053559;28;20029;-82
2021/05/09 09:07:12;;;;;;;4.13;1.67;;;19.70;38.30;;;;;;5052612;28;20045;-81
2021/05/09 09:09:41;;;;;;;2.30;1.63;;;20.00;36.80;;;;;;5053993;28;20071;-82
2021/05/09 09:12:07;;;;;;;3.15;1.63;;;19.60;36.10;;;;;;5054329;28;20041;-82
2021/05/09 09:14:33;;;;;;;2.08;1.58;;;19.00;36.30;;;;;;5052493;28;20406;-83
2021/05/09 09:17:15;;;;;;;2.58;1.77;;;18.80;37.00;;;;;;5053578;28;20017;-82
2021/05/09 09:19:59;;;;;;;3.05;2.00;;;18.80;37.70;;;;;;5053583;28;20078;-82
2021/05/09 09:22:25;;;;;;;4.90;1.77;;;19.10;38.30;;;;;;5052393;28;20111;-83
2021/05/09 09:25:07;;;;;;;2.50;1.60;;;19.60;37.80;;;;;;5052027;28;20444;-83
2021/05/09 09:27:32;;;;;;;2.55;1.58;;;20.20;36.90;;;;;;5052031;28;20442;-83
2021/05/09 09:30:00;;;;;;;3.45;1.75;;;20.10;36.50;;;;;;5051941;28;20116;-83
2021/05/09 09:32:25;;;;;;;2.92;2.00;;;19.60;36.60;;;;;;5051945;28;20029;-83
2021/05/09 09:34:51;;;;;;;2.53;1.80;;;19.20;37.50;;;;;;5053183;28;20032;-82
2021/05/09 09:37:17;;;;;;;2.67;2.10;;;19.60;38.40;;;;;;5052819;28;20390;-83
2021/05/09 09:39:48;;;;;;;3.55;1.70;;;20.50;38.20;;;;;;5052651;28;20029;-83
2021/05/09 09:42:15;;;;;;;6.00;1.98;;;21.10;36.60;;;;;;5051714;28;20496;-83
2021/05/09 09:44:40;;;;;;;3.90;1.90;;;20.90;36.00;;;;;;5051732;28;20383;-83
2021/05/09 09:47:06;;;;;;;2.55;1.73;;;20.20;35.70;;;;;;5052279;28;20032;-82
2021/05/09 09:49:36;;;;;;;2.80;1.85;;;19.60;36.10;;;;;;5055860;28;20040;-82
2021/05/09 09:52:05;;;;;;;3.70;2.00;;;18.80;36.50;;;;;;5057926;28;20025;-82
2021/05/09 09:54:41;;;;;;;3.45;1.80;;;18.50;37.50;;;;;;5057320;28;20024;-81
2021/05/09 09:57:24;;;;;;;3.63;1.90;;;18.10;37.70;;;;;;5055949;28;20058;-81
2021/05/09 10:00:08;;;;;;;4.05;2.15;;;17.90;38.50;;;;;;5056981;28;20029;-82
2021/05/09 10:02:35;;;;;;;3.20;2.10;;;18.10;38.60;;;;;;5043034;28;20021;-82
2021/05/09 10:05:01;;;;;;;2.25;1.63;;;18.60;39.00;;;;;;5056903;28;20036;-82
2021/05/09 10:07:27;;;;;;;6.50;1.80;;;19.00;37.30;;;;;;5057180;28;20037;-81
2021/05/09 10:09:56;;;;;;;2.65;1.83;;;19.30;37.60;;;;;;5057109;28;20055;-82
2021/05/09 10:12:25;;;;;;;3.55;1.60;;;20.00;37.40;;;;;;5056975;28;20120;-82
2021/05/09 10:14:54;;;;;;;2.50;1.65;;;20.50;36.40;;;;;;5055565;28;20482;-82
2021/05/09 10:17:22;;;;;;;4.20;1.80;;;20.50;35.70;;;;;;5055621;28;20472;-82
2021/05/09 10:19:48;;;;;;;3.17;1.85;;;20.70;35.20;;;;;;5055011;28;20017;-80
2021/05/09 10:22:26;;;;;;;2.38;1.70;;;20.70;35.10;;;;;;5055470;28;20017;-81
2021/05/09 10:24:52;;;;;;;3.33;1.67;;;21.10;35.20;;;;;;5056478;28;20070;-77
2021/05/09 10:27:18;;;;;;;3.45;2.03;;;21.50;34.80;;;;;;5055926;28;20115;-85
2021/05/09 10:29:45;;;;;;;6.60;2.25;;;22.10;35.00;;;;;;5057871;28;20036;-84
2021/05/09 10:32:20;;;;;;;2.63;1.70;;;22.10;33.70;;;;;;5060820;28;20029;-84
2021/05/09 10:34:52;;;;;;;2.60;1.63;;;22.00;34.00;;;;;;5063653;28;20021;-84
2021/05/09 10:37:37;;;;;;;2.55;1.50;;;22.10;33.60;;;;;;5069488;28;20029;-83
2021/05/09 10:40:23;;;;;;;2.78;1.88;;;21.90;34.20;;;;;;5065058;28;20033;-84
2021/05/09 10:43:01;;;;;;;2.75;1.70;;;22.10;33.80;;;;;;5064764;28;20036;-83
2021/05/09 10:45:31;;;;;;;2.70;1.88;;;22.20;33.70;;;;;;5062357;28;20035;-84
2021/05/09 10:48:22;;;;;;;2.38;1.48;;;22.10;34.10;;;;;;5062532;28;20036;-84
2021/05/09 10:50:48;;;;;;;6.00;1.98;;;22.20;33.00;;;;;;5049299;28;20029;-85
2021/05/09 10:56:16;;;;;;;2.13;1.40;;;21.70;32.50;;;;;;5044571;28;20471;-83
2021/05/09 10:58:54;;;;;;;5.43;1.75;;;21.30;32.80;;;;;;5054290;28;20036;-83
2021/05/09 11:01:22;;;;;;;2.28;1.70;;;20.60;33.00;;;;;;5054558;28;20029;-84
2021/05/09 11:03:49;;;;;;;4.15;2.38;;;20.30;34.10;;;;;;5055751;28;20059;-83
2021/05/09 11:06:15;;;;;;;2.78;1.80;;;20.00;34.50;;;;;;5054543;28;20044;-83
2021/05/09 11:09:02;;;;;;;2.95;2.00;;;19.80;34.90;;;;;;5054238;28;20117;-85
2021/05/09 11:11:31;;;;;;;4.00;1.80;;;19.90;35.40;;;;;;5054276;28;20047;-84
2021/05/09 11:14:00;;;;;;;3.75;1.83;;;20.30;34.90;;;;;;5054388;28;20024;-84
2021/05/09 11:16:49;;;;;;;3.40;2.08;;;20.30;34.70;;;;;;5054332;28;20027;-85
2021/05/09 11:19:18;;;;;;;3.10;1.80;;;19.80;34.70;;;;;;5055860;28;20032;-84
2021/05/09 11:21:49;;;;;;;3.63;1.80;;;19.60;35.50;;;;;;5057816;28;20031;-84
2021/05/09 11:24:35;;;;;;;2.30;1.60;;;19.40;35.80;;;;;;5056623;28;20368;-84
2021/05/09 11:27:16;;;;;;;2.85;1.60;;;19.00;36.30;;;;;;5055975;28;20092;-83
2021/05/09 11:29:47;;;;;;;3.42;1.90;;;18.80;36.20;;;;;;5055288;28;20356;-83
2021/05/09 11:32:14;;;;;;;2.97;1.80;;;18.50;36.80;;;;;;5054576;28;20421;-83
2021/05/09 11:35:09;;;;;;;3.30;1.70;;;18.30;37.00;;;;;;5053684;28;20033;-84
2021/05/09 11:37:37;;;;;;;2.80;1.90;;;18.10;37.30;;;;;;5053645;28;20033;-84
2021/05/09 11:40:05;;;;;;;2.67;1.88;;;17.70;37.90;;;;;;5053814;28;20531;-82
2021/05/09 11:42:31;;;;;;;4.03;2.17;;;17.60;38.60;;;;;;5053851;28;20032;-83
2021/05/09 11:44:58;;;;;;;2.75;1.77;;;17.60;38.60;;;;;;5053540;28;20032;-83
2021/05/09 11:47:30;;;;;;;3.78;2.10;;;17.40;38.70;;;;;;5055435;28;20074;-85
2021/05/09 11:49:58;;;;;;;2.83;1.98;;;17.10;38.80;;;;;;5055192;28;20418;-82
2021/05/09 11:52:27;;;;;;;3.85;2.00;;;17.00;39.20;;;;;;5053687;28;20056;-86
2021/05/09 11:54:58;;;;;;;3.28;2.20;;;16.90;39.50;;;;;;5055221;28;20021;-83
2021/05/09 11:57:29;;;;;;;6.97;2.15;;;16.70;39.70;;;;;;5053310;28;20480;-84
2021/05/09 11:59:57;;;;;;;3.95;2.50;;;16.50;39.90;;;;;;5053722;28;20029;-83
2021/05/09 12:02:34;;;;;;;3.33;1.90;;;16.40;40.30;;;;;;5054815;28;20021;-83
2021/05/09 12:05:17;;;;;;;3.35;1.80;;;16.50;40.40;;;;;;5053865;28;20498;-85
2021/05/09 12:07:59;;;;;;;4.38;2.10;;;16.70;40.40;;;;;;5039782;28;20162;-85
2021/05/09 12:10:24;;;;;;;3.92;2.00;;;17.00;40.30;;;;;;5053184;28;20064;-85
2021/05/09 12:13:02;;;;;;;2.53;1.83;;;17.20;39.80;;;;;;5053162;28;20506;-82
2021/05/09 12:15:32;;;;;;;3.92;2.05;;;17.30;40.00;;;;;;5053362;28;20075;-83
2021/05/09 12:17:58;;;;;;;6.07;1.85;;;17.40;39.60;;;;;;5053153;28;20387;-83
2021/05/09 12:20:29;;;;;;;2.63;1.70;;;17.50;39.40;;;;;;5053082;28;20079;-82
2021/05/09 12:23:06;;;;;;;2.88;2.00;;;17.50;39.40;;;;;;5053020;28;20032;-83
2021/05/09 12:25:40;;;;;;;9.77;2.17;;;17.60;39.90;;;;;;5053572;28;20024;-83
2021/05/09 12:28:08;;;;;;;3.10;1.77;;;17.70;39.60;;;;;;5053514;28;20032;-83
2021/05/09 12:30:34;;;;;;;3.83;1.70;;;17.60;39.20;;;;;;5054263;28;20029;-83
2021/05/09 12:33:00;;;;;;;3.00;1.83;;;17.20;38.60;;;;;;5053007;28;20033;-82
2021/05/09 12:35:26;;;;;;;2.30;1.60;;;16.90;38.70;;;;;;5057230;28;20476;-82
2021/05/09 12:37:54;;;;;;;3.25;1.67;;;16.90;38.90;;;;;;5055073;28;20021;-82
2021/05/09 12:40:21;;;;;;;2.13;1.40;;;16.90;38.70;;;;;;5058388;28;20029;-81
2021/05/09 12:42:58;;;;;;;3.03;1.80;;;16.80;38.50;;;;;;5055699;28;20426;-81
2021/05/09 12:45:29;;;;;;;4.13;1.60;;;16.70;38.60;;;;;;5060192;28;20021;-81
2021/05/09 12:48:02;;;;;;;2.60;1.55;;;16.90;38.80;;;;;;5062459;28;20025;-81
2021/05/09 12:50:44;;;;;;;2.47;1.48;;;16.90;38.60;;;;;;5064878;28;20039;-82
2021/05/09 12:53:10;;;;;;;2.58;1.60;;;16.80;38.30;;;;;;5066467;28;20037;-81
2021/05/09 12:55:35;;;;;;;4.03;1.88;;;16.70;38.50;;;;;;5059304;28;20025;-82